Latest Coastal Weather Observations for Cato Island

IDQ60701

Issued at 7:12 pm EST Wednesday 18 October 2017 (issued every 10 minutes, with the page automatically refreshed every 10 minutes)

About coastal observations | Map of coastal stations | Coastal observations for QLD | Marine services | Other Formats
Station Details ID: 200601 Name: CATO ISLAND Lat: -23.25 Lon: 155.54 Height: 6.3 m
Data from the previous 72 hours. | See also: Recent months for locations in Queensland
Date/Time
EST
Temp
°C
Wind Pressure Rain since
9am
mm
Weather Cloud Vis
km
Sea
Height
m
Swell
Dir  Spd
kts
Gust
kts
hPa Trend Height
m
Period
s
Dir
18/07:00pm 22.8 - 26 32 1019.5 - - - - - - - - -
18/06:30pm 23.1 - 26 31 1019.2 - - - - - - - - -
18/06:00pm 23.2 - 29 34 1018.7 - - - - - - - - -
18/05:30pm 23.2 - 29 33 1018.2 - - - - - - - - -
18/05:00pm 23.2 - 29 34 1018.0 - - - - - - - - -
18/04:30pm 23.3 - 27 32 1017.5 - - - - - - - - -
18/04:00pm 23.5 - 26 31 1017.6 - - - - - - - - -
18/03:30pm 23.5 - 29 33 1017.3 - - - - - - - - -
18/03:00pm 23.5 - 28 34 1017.1 - - - - - - - - -
18/02:30pm 23.5 - 29 33 1016.9 - - - - - - - - -
18/02:00pm 23.7 - 29 34 1017.0 - - - - - - - - -
18/01:30pm 23.9 - 29 35 1017.3 - - - - - - - - -
18/01:00pm 23.7 - 28 34 1017.6 - - - - - - - - -
18/12:30pm 23.7 - 27 32 1017.9 - - - - - - - - -
18/12:00pm 23.8 - 27 32 1018.2 - - - - - - - - -
18/11:30am 23.9 - 26 30 1018.3 - - - - - - - - -
18/11:00am 23.9 - 27 32 1018.5 - - - - - - - - -
18/10:30am 23.9 - 28 32 1018.5 - - - - - - - - -
18/10:00am 23.9 - 30 34 1018.7 - - - - - - - - -
18/09:30am 23.8 - 28 33 1018.8 - - - - - - - - -
18/09:00am 23.9 - 26 32 1018.9 - - - - - - - - -
18/08:30am 23.7 - 28 32 1018.6 - - - - - - - - -
18/08:00am 23.6 - 28 33 1018.3 - - - - - - - - -
18/07:30am 23.5 - 26 31 1017.8 - - - - - - - - -
18/07:00am 23.3 - 27 33 1017.7 - - - - - - - - -
18/06:30am 23.0 - 27 35 1017.3 - - - - - - - - -
18/06:05am 23.1 - 24 35 1017.0 - - - - - - - - -
18/06:00am 23.4 - 24 30 1017.0 - - - - - - - - -
18/05:30am 23.3 - 26 30 1016.4 - - - - - - - - -
18/05:00am 22.7 - 25 33 1016.4 - - - - - - - - -
18/04:30am 23.5 - 26 30 1015.9 - - - - - - - - -
18/04:00am 23.5 - 24 30 1015.4 - - - - - - - - -
18/03:30am 23.5 - 25 30 1014.8 - - - - - - - - -
18/03:00am 23.5 - 25 30 1014.6 - - - - - - - - -
18/02:30am 23.5 - 22 27 1014.7 - - - - - - - - -
18/02:00am 23.6 - 21 26 1014.8 - - - - - - - - -
18/01:30am 23.3 - 21 25 1015.1 - - - - - - - - -
18/01:00am 23.4 - 23 27 1015.6 - - - - - - - - -
18/12:30am 23.6 - 21 27 1016.1 - - - - - - - - -
18/12:00am 23.6 - 22 28 1016.4 - - - - - - - - -
 
Date/Time
EST
Temp
°C
Wind Pressure Rain since
9am
mm
Weather Cloud Vis
km
Sea
Height
m
Swell
Dir  Spd
kts
Gust
kts
hPa Trend Height
m
Period
s
Dir
17/11:30pm 23.7 - 23 26 1016.7 - - - - - - - - -
17/11:00pm 23.7 - 21 25 1016.8 - - - - - - - - -
17/10:30pm 23.8 - 21 25 1016.9 - - - - - - - - -
17/10:00pm 23.7 - 18 21 1017.0 - - - - - - - - -
17/09:30pm 23.7 - 20 24 1016.9 - - - - - - - - -
17/09:00pm 23.5 - 20 22 1016.8 - - - - - - - - -
17/08:30pm 23.6 - 19 22 1016.5 - - - - - - - - -
17/08:00pm 23.6 - 19 22 1016.3 - - - - - - - - -
17/07:30pm 23.6 - 17 20 1016.4 - - - - - - - - -
17/07:00pm 23.6 - 18 20 1016.6 - - - - - - - - -
17/06:30pm 23.6 - 18 21 1016.4 - - - - - - - - -
17/06:00pm 23.5 - 18 20 1016.2 - - - - - - - - -
17/05:30pm 23.4 - 19 22 1015.6 - - - - - - - - -
17/05:00pm 23.3 - 20 24 1015.2 - - - - - - - - -
17/04:30pm 23.3 - 20 25 1014.5 - - - - - - - - -
17/04:00pm 23.4 - 20 24 1014.0 - - - - - - - - -
17/03:30pm 23.4 - 20 24 1013.8 - - - - - - - - -
17/03:00pm 23.3 - 20 23 1013.8 - - - - - - - - -
17/02:30pm 23.3 - 21 24 1014.1 - - - - - - - - -
17/02:00pm 23.3 - 19 22 1014.5 - - - - - - - - -
17/01:30pm 23.3 - 20 23 1014.2 - - - - - - - - -
17/01:00pm 23.4 - 20 23 1014.4 - - - - - - - - -
17/12:30pm 23.4 - 19 23 1015.2 - - - - - - - - -
17/12:00pm 23.3 - 20 23 1015.6 - - - - - - - - -
17/11:30am 23.4 - 21 25 1016.0 - - - - - - - - -
17/11:00am 23.4 - 21 25 1016.0 - - - - - - - - -
17/10:30am 23.4 - 22 27 1016.0 - - - - - - - - -
17/10:00am 23.2 - 24 29 1016.2 - - - - - - - - -
17/09:30am 23.0 - 26 31 1016.4 - - - - - - - - -
17/09:00am 23.1 - 26 31 1016.1 - - - - - - - - -
17/08:30am 22.9 - 28 33 1015.6 - - - - - - - - -
17/08:00am 22.9 - 26 31 1015.9 - - - - - - - - -
17/07:30am 22.6 - 28 33 1015.2 - - - - - - - - -
17/07:00am 21.8 - 29 36 1015.1 - - - - - - - - -
17/06:30am 21.7 - 31 37 1014.4 - - - - - - - - -
17/06:09am 21.4 - 33 43 1013.8 - - - - - - - - -
17/06:00am 21.5 - 34 43 1013.4 - - - - - - - - -
17/05:30am 21.9 - 30 36 1013.1 - - - - - - - - -
17/05:00am 21.6 - 31 36 1013.0 - - - - - - - - -
17/04:30am 22.8 - 32 38 1012.1 - - - - - - - - -
17/04:00am 23.1 - 33 39 1011.9 - - - - - - - - -
17/03:30am 23.1 - 34 42 1011.4 - - - - - - - - -
17/03:11am 23.4 - 32 42 1011.2 - - - - - - - - -
17/03:00am 23.4 - 33 39 1011.3 - - - - - - - - -
17/02:30am 23.4 - 34 41 1011.4 - - - - - - - - -
17/02:00am 23.6 - 32 40 1011.7 - - - - - - - - -
17/01:30am 23.5 - 33 40 1012.1 - - - - - - - - -
17/01:00am 23.4 - 30 37 1012.3 - - - - - - - - -
17/12:30am 23.3 - 31 37 1012.9 - - - - - - - - -
17/12:03am 22.1 - 33 44 1012.1 - - - - - - - - -
17/12:00am 22.0 - 32 39 1012.1 - - - - - - - - -
 
Date/Time
EST
Temp
°C
Wind Pressure Rain since
9am
mm
Weather Cloud Vis
km
Sea
Height
m
Swell
Dir  Spd
kts
Gust
kts
hPa Trend Height
m
Period
s
Dir
16/11:30pm 23.2 - 31 38 1012.7 - - - - - - - - -
16/11:00pm 23.1 - 29 34 1013.0 - - - - - - - - -
16/10:30pm 23.1 - 33 40 1012.8 - - - - - - - - -
16/10:00pm 23.1 - 30 37 1013.1 - - - - - - - - -
16/09:30pm 23.1 - 28 33 1013.4 - - - - - - - - -
16/09:00pm 23.0 - 24 29 1013.1 - - - - - - - - -
16/08:30pm 22.4 - 24 29 1013.2 - - - - - - - - -
16/08:00pm 22.4 - 29 35 1012.9 - - - - - - - - -
16/07:43pm 22.4 - 28 38 1012.8 - - - - - - - - -
16/07:30pm 22.3 - 30 35 1012.5 - - - - - - - - -
16/07:00pm 22.5 - 28 32 1012.5 - - - - - - - - -
16/06:30pm 22.4 - 31 37 1011.7 - - - - - - - - -
16/06:00pm 22.4 - 30 35 1011.8 - - - - - - - - -
16/05:30pm 22.8 - 25 30 1012.0 - - - - - - - - -
16/05:00pm 22.8 - 22 25 1011.8 - - - - - - - - -
16/04:30pm 22.6 - 26 30 1011.4 - - - - - - - - -
16/04:00pm 22.6 - 28 33 1010.9 - - - - - - - - -
16/03:30pm 23.0 - 29 33 1010.8 - - - - - - - - -
16/03:00pm 23.4 - 25 29 1011.0 - - - - - - - - -
16/02:30pm 23.6 - 23 27 1010.8 - - - - - - - - -
16/02:00pm 24.2 - 23 27 1011.2 - - - - - - - - -
16/01:30pm 23.7 - 23 28 1011.4 - - - - - - - - -
16/01:00pm 23.1 - 23 28 1011.5 - - - - - - - - -
16/12:30pm 23.3 - 25 30 1011.8 - - - - - - - - -
16/12:00pm 23.5 - 25 30 1012.2 - - - - - - - - -
16/11:30am 23.9 - 26 30 1012.7 - - - - - - - - -
16/11:00am 23.2 - 24 31 1013.1 - - - - - - - - -
16/10:30am 23.2 - 23 27 1013.1 - - - - - - - - -
16/10:00am 23.3 - 24 30 1013.2 - - - - - - - - -
16/09:30am 22.9 - 25 33 1013.3 - - - - - - - - -
16/09:00am 23.3 - 25 30 1013.2 - - - - - - - - -
16/08:30am 22.3 - 27 31 1012.9 - - - - - - - - -
16/08:00am 22.3 - 24 30 1012.7 - - - - - - - - -
16/07:30am 22.3 - 27 32 1012.7 - - - - - - - - -
16/07:00am 21.9 - 25 32 1012.6 - - - - - - - - -
16/06:30am 22.0 - 20 25 1012.3 - - - - - - - - -
16/06:00am 22.2 - 24 28 1012.0 - - - - - - - - -
16/05:30am 21.9 - 26 33 1011.4 - - - - - - - - -
16/05:00am 22.1 - 27 31 1011.0 - - - - - - - - -
16/04:30am 22.3 - 22 28 1010.7 - - - - - - - - -
16/04:00am 22.6 - 25 29 1010.4 - - - - - - - - -
16/03:30am 23.1 - 22 27 1010.0 - - - - - - - - -
16/03:00am 23.2 - 20 23 1009.8 - - - - - - - - -
16/02:30am 22.6 - 24 30 1009.9 - - - - - - - - -
16/02:00am 23.4 - 20 24 1010.0 - - - - - - - - -
16/01:30am 23.6 - 20 23 1010.4 - - - - - - - - -
16/01:00am 23.3 - 20 23 1010.3 - - - - - - - - -
16/12:30am 23.5 - 21 26 1010.8 - - - - - - - - -
16/12:00am 23.6 - 23 26 1011.0 - - - - - - - - -
 
Date/Time
EST
Temp
°C
Wind Pressure Rain since
9am
mm
Weather Cloud Vis
km
Sea
Height
m
Swell
Dir  Spd
kts
Gust
kts
hPa Trend Height
m
Period
s
Dir
15/11:30pm 23.8 - 20 24 1011.1 - - - - - - - - -
15/11:00pm 23.7 - 22 27 1011.4 - - - - - - - - -
15/10:30pm 23.7 - 20 23 1011.4 - - - - - - - - -
15/10:00pm 23.8 - 19 22 1011.4 - - - - - - - - -
15/09:30pm 23.6 - 18 21 1011.3 - - - - - - - - -
15/09:00pm 23.5 - 17 20 1011.6 - - - - - - - - -
15/08:43pm 23.3 - 17 22 1011.6 - - - - - - - - -
15/08:30pm 23.8 - 1 3 1011.5 - - - - - - - - -
15/08:00pm 23.8 - 1 - 1011.3 - - - - - - - - -

Other Formats:

Comma delimited format used in spreadsheet applications
http://www.bom.gov.au/fwo/IDQ60701/IDQ60701.94394.axf

JavaScript Object Notation format (JSON) in row-major order
http://www.bom.gov.au/fwo/IDQ60701/IDQ60701.94394.json